Time;durP1;ratioP1;P1;durP2;ratioP2;P2;SDS_P1;SDS_P2;PMS_P1;PMS_P2;Temp;Humidity;BMP_temperature;BMP_pressure;BME280_temperature;BME280_humidity;BME280_pressure;Samples;Min_cycle;Max_cycle;Signal;HPM_P1;HPM_P2
2022/09/15 00:00:50;;;;;;;10.43;3.75;;;14.00;99.90;;;;;;5018483;28;20132;-79
2022/09/15 00:03:16;;;;;;;9.52;3.47;;;14.00;99.90;;;;;;5020682;28;20131;-79
2022/09/15 00:05:42;;;;;;;7.57;3.00;;;14.10;99.90;;;;;;5022935;28;20049;-79
2022/09/15 00:08:08;;;;;;;10.13;2.78;;;14.20;99.90;;;;;;5006669;28;20051;-77
2022/09/15 00:10:34;;;;;;;14.52;3.00;;;14.20;99.90;;;;;;5023592;28;20037;-78
2022/09/15 00:12:59;;;;;;;14.30;2.75;;;14.20;99.90;;;;;;5004465;28;20048;-77
2022/09/15 00:15:28;;;;;;;9.23;2.75;;;14.20;99.90;;;;;;5018561;28;20040;-79
2022/09/15 00:17:53;;;;;;;10.00;2.70;;;14.30;99.90;;;;;;5005397;28;20065;-78
2022/09/15 00:20:20;;;;;;;14.27;2.88;;;14.20;99.90;;;;;;5016988;28;20044;-78
2022/09/15 00:22:47;;;;;;;9.70;2.78;;;14.30;99.90;;;;;;5021235;28;20111;-80
2022/09/15 00:25:13;;;;;;;11.68;2.53;;;14.20;99.90;;;;;;5021937;28;20049;-78
2022/09/15 00:27:40;;;;;;;12.88;2.63;;;14.30;99.90;;;;;;5017337;28;20048;-79
2022/09/15 00:30:07;;;;;;;7.95;2.65;;;14.30;99.90;;;;;;5021406;28;20072;-80
2022/09/15 00:32:33;;;;;;;16.38;2.78;;;14.30;99.90;;;;;;5004835;28;20041;-80
2022/09/15 00:34:59;;;;;;;13.73;2.67;;;14.30;99.90;;;;;;5002639;28;20067;-78
2022/09/15 00:37:25;;;;;;;6.35;2.10;;;14.40;99.90;;;;;;5018565;28;20513;-77
2022/09/15 00:39:52;;;;;;;8.05;2.30;;;14.30;99.90;;;;;;5017671;28;20029;-80
2022/09/15 00:42:19;;;;;;;7.80;2.67;;;14.30;99.90;;;;;;5014747;28;20045;-78
2022/09/15 00:44:51;;;;;;;10.63;2.67;;;14.30;99.90;;;;;;4999806;28;20350;-79
2022/09/15 00:47:21;;;;;;;11.05;3.20;;;14.30;99.90;;;;;;5006667;28;20488;-79
2022/09/15 00:49:52;;;;;;;6.20;2.22;;;14.30;99.90;;;;;;5017993;28;20075;-80
2022/09/15 00:52:44;;;;;;;9.65;2.10;;;14.30;99.90;;;;;;5024082;28;20162;-80
2022/09/15 00:55:25;;;;;;;8.93;1.83;;;14.30;99.90;;;;;;5017123;28;20420;-78
2022/09/15 00:58:13;;;;;;;13.10;1.88;;;14.30;99.90;;;;;;4999068;28;20034;-80
2022/09/15 01:00:46;;;;;;;7.82;1.70;;;14.30;99.90;;;;;;5001981;28;20476;-79
2022/09/15 01:03:12;;;;;;;7.78;1.80;;;14.30;99.90;;;;;;5030143;28;20056;-78
2022/09/15 01:05:47;;;;;;;7.10;1.50;;;14.30;99.90;;;;;;5007867;28;20041;-79
2022/09/15 01:08:32;;;;;;;13.35;1.92;;;14.30;99.90;;;;;;5023096;28;20047;-78
2022/09/15 01:10:58;;;;;;;7.75;1.67;;;14.30;99.90;;;;;;5029327;28;20041;-80
2022/09/15 01:13:25;;;;;;;9.48;1.70;;;14.40;99.90;;;;;;5028032;28;20182;-77
2022/09/15 01:15:57;;;;;;;8.27;1.83;;;14.40;99.90;;;;;;5003204;28;20048;-78
2022/09/15 01:18:58;;;;;;;9.15;1.60;;;14.30;99.90;;;;;;5004806;28;20106;-78
2022/09/15 01:21:44;;;;;;;12.27;1.60;;;14.30;99.90;;;;;;5021447;28;20045;-79
2022/09/15 01:24:45;;;;;;;8.88;1.38;;;14.30;99.90;;;;;;5020245;28;20033;-78
2022/09/15 01:27:27;;;;;;;7.63;1.50;;;14.30;99.90;;;;;;5028589;28;20041;-79
2022/09/15 01:30:05;;;;;;;9.60;1.60;;;14.30;99.90;;;;;;5005759;28;20381;-78
2022/09/15 01:33:02;;;;;;;7.05;1.20;;;14.30;99.90;;;;;;5024895;28;20469;-79
2022/09/15 01:35:53;;;;;;;9.23;1.30;;;14.30;99.90;;;;;;5019421;28;20045;-78
2022/09/15 01:38:36;;;;;;;6.65;1.67;;;14.30;99.90;;;;;;5022129;28;20067;-79
2022/09/15 01:41:25;;;;;;;9.43;1.50;;;14.20;99.90;;;;;;5021549;28;20052;-77
2022/09/15 01:44:09;;;;;;;7.07;1.85;;;14.20;99.90;;;;;;5005243;28;20056;-79
2022/09/15 01:47:04;;;;;;;6.57;1.40;;;14.30;99.90;;;;;;5023041;28;20036;-79
2022/09/15 01:49:37;;;;;;;8.40;1.30;;;14.30;99.90;;;;;;4931995;28;20051;-79
2022/09/15 01:52:03;;;;;;;9.30;1.40;;;14.30;99.90;;;;;;4940364;28;20625;-79
2022/09/15 01:54:33;;;;;;;4.65;1.15;;;14.30;99.90;;;;;;4930550;28;21742;-79
2022/09/15 01:57:01;;;;;;;7.72;1.15;;;14.30;99.90;;;;;;4940866;28;20066;-78
2022/09/15 01:59:28;;;;;;;6.07;1.25;;;14.30;99.90;;;;;;4947518;28;20098;-78
2022/09/15 02:01:58;;;;;;;7.65;1.17;;;14.40;99.90;;;;;;4940592;28;20046;-77
2022/09/15 02:04:45;;;;;;;10.32;1.50;;;14.40;99.90;;;;;;4962508;28;20098;-78
2022/09/15 02:07:34;;;;;;;12.93;1.75;;;14.30;99.90;;;;;;4944146;28;20053;-79
2022/09/15 02:10:18;;;;;;;14.30;1.80;;;14.50;99.90;;;;;;4960855;28;20054;-78
2022/09/15 02:12:49;;;;;;;13.32;1.98;;;14.50;99.90;;;;;;4951898;28;20058;-79
2022/09/15 02:15:22;;;;;;;9.57;1.70;;;14.40;99.90;;;;;;4929005;28;20054;-79
2022/09/15 02:17:53;;;;;;;14.98;2.58;;;14.40;99.90;;;;;;4941737;28;20069;-77
2022/09/15 02:20:37;;;;;;;9.68;1.90;;;14.30;99.90;;;;;;4923328;28;20070;-79
2022/09/15 02:23:25;;;;;;;7.97;1.40;;;14.30;99.90;;;;;;4960429;28;20053;-77
2022/09/15 02:25:54;;;;;;;7.20;1.33;;;14.30;99.90;;;;;;4958420;28;20068;-79
2022/09/15 02:28:26;;;;;;;9.13;1.63;;;14.30;99.90;;;;;;5019106;28;20044;-78
2022/09/15 02:30:54;;;;;;;7.35;1.17;;;14.30;99.90;;;;;;5022157;28;20053;-78
2022/09/15 02:33:24;;;;;;;7.63;1.38;;;14.30;99.90;;;;;;5007903;28;20044;-77
2022/09/15 02:35:51;;;;;;;12.18;1.40;;;14.30;99.90;;;;;;5023921;28;21712;-78
2022/09/15 02:38:17;;;;;;;9.50;1.60;;;14.20;99.90;;;;;;5021083;28;20037;-77
2022/09/15 02:40:43;;;;;;;6.70;1.60;;;14.10;99.90;;;;;;5023951;28;20111;-77
2022/09/15 02:43:15;;;;;;;7.80;1.13;;;14.00;99.90;;;;;;5026239;28;20060;-77
2022/09/15 02:45:41;;;;;;;12.60;1.40;;;14.00;99.90;;;;;;5017545;28;20049;-78
2022/09/15 02:48:08;;;;;;;9.77;1.33;;;13.90;99.90;;;;;;5025436;28;20094;-78
2022/09/15 02:50:35;;;;;;;11.68;1.65;;;13.90;99.90;;;;;;5003460;28;20111;-77
2022/09/15 02:53:00;;;;;;;7.68;1.13;;;13.90;99.90;;;;;;5008085;28;20472;-77
2022/09/15 02:55:27;;;;;;;12.65;2.15;;;13.90;99.90;;;;;;5004024;28;20049;-78
2022/09/15 02:57:54;;;;;;;11.40;1.73;;;13.90;99.90;;;;;;5020025;28;20067;-77
2022/09/15 03:00:20;;;;;;;14.75;1.95;;;13.90;99.90;;;;;;5015161;28;20130;-78
2022/09/15 03:02:51;;;;;;;8.52;1.77;;;13.90;99.90;;;;;;5024494;28;20068;-79
2022/09/15 03:05:19;;;;;;;6.95;1.70;;;13.90;99.90;;;;;;5002907;28;20049;-78
2022/09/15 03:07:45;;;;;;;10.30;1.80;;;13.90;99.90;;;;;;5021753;28;20136;-78
2022/09/15 03:10:13;;;;;;;15.00;2.10;;;13.90;99.90;;;;;;5019523;28;20168;-79
2022/09/15 03:12:45;;;;;;;11.75;2.10;;;13.90;99.90;;;;;;5041105;28;20045;-80
2022/09/15 03:15:12;;;;;;;13.70;2.20;;;13.90;99.90;;;;;;5013435;28;20480;-79
2022/09/15 03:17:43;;;;;;;13.90;1.70;;;14.00;99.90;;;;;;5021009;28;20052;-78
2022/09/15 03:20:11;;;;;;;5.97;1.38;;;14.00;99.90;;;;;;5000975;28;20061;-79
2022/09/15 03:22:37;;;;;;;8.02;1.27;;;13.90;99.90;;;;;;5032523;28;20124;-77
2022/09/15 03:25:04;;;;;;;9.60;1.77;;;13.90;99.90;;;;;;4998928;28;20124;-78
2022/09/15 03:27:30;;;;;;;12.82;1.80;;;14.00;99.90;;;;;;5005235;28;20072;-78
2022/09/15 03:29:56;;;;;;;10.27;1.48;;;14.00;99.90;;;;;;5004974;28;20408;-78
2022/09/15 03:32:22;;;;;;;8.70;1.60;;;14.00;99.90;;;;;;5022675;28;20037;-78
2022/09/15 03:34:48;;;;;;;8.27;1.50;;;14.00;99.90;;;;;;5003539;28;20040;-77
2022/09/15 03:37:13;;;;;;;8.55;1.67;;;14.00;99.90;;;;;;5006908;28;20052;-78
2022/09/15 03:39:39;;;;;;;8.52;1.50;;;14.00;99.90;;;;;;5027118;28;20041;-79
2022/09/15 03:42:05;;;;;;;6.80;1.65;;;14.00;99.90;;;;;;5007461;28;20032;-79
2022/09/15 03:44:30;;;;;;;8.20;1.50;;;13.90;99.90;;;;;;5024196;28;20107;-78
2022/09/15 03:46:57;;;;;;;9.25;1.27;;;13.90;99.90;;;;;;5023348;28;20380;-78
2022/09/15 03:49:23;;;;;;;7.65;1.50;;;13.90;99.90;;;;;;5016255;28;20441;-78
2022/09/15 03:51:49;;;;;;;11.13;1.65;;;13.90;99.90;;;;;;5019765;28;20037;-78
2022/09/15 03:54:15;;;;;;;6.32;1.10;;;13.90;99.90;;;;;;5016265;28;20082;-77
2022/09/15 03:56:41;;;;;;;10.20;1.30;;;13.90;99.90;;;;;;5020747;28;20057;-79
2022/09/15 03:59:08;;;;;;;8.30;1.55;;;13.90;99.90;;;;;;5023731;28;20041;-78
2022/09/15 04:01:34;;;;;;;6.30;1.48;;;13.90;99.90;;;;;;5003964;28;20060;-80
2022/09/15 04:04:00;;;;;;;15.38;1.45;;;13.90;99.90;;;;;;5001851;28;20128;-78
2022/09/15 04:06:26;;;;;;;10.70;1.88;;;14.00;99.90;;;;;;5001465;28;20083;-79
2022/09/15 04:08:53;;;;;;;10.43;1.85;;;14.00;99.90;;;;;;5019014;28;20124;-79
2022/09/15 04:11:20;;;;;;;10.95;1.67;;;14.00;99.90;;;;;;5035436;28;20033;-80
2022/09/15 04:13:47;;;;;;;9.55;1.55;;;14.00;99.90;;;;;;5003614;28;20160;-79
2022/09/15 04:16:16;;;;;;;12.27;2.05;;;14.00;99.90;;;;;;5017435;28;20068;-80
2022/09/15 04:18:42;;;;;;;12.60;2.17;;;14.00;99.90;;;;;;5018584;28;20107;-78
2022/09/15 04:21:14;;;;;;;11.63;1.80;;;14.00;99.90;;;;;;5001175;28;20037;-80
2022/09/15 04:23:41;;;;;;;19.50;2.03;;;14.00;99.90;;;;;;5017998;28;20161;-78
2022/09/15 04:26:22;;;;;;;12.10;1.98;;;14.00;99.90;;;;;;5017015;28;20044;-77
2022/09/15 04:28:48;;;;;;;13.63;1.65;;;14.10;99.90;;;;;;5003094;28;20349;-79
2022/09/15 04:31:15;;;;;;;11.13;1.63;;;14.20;99.90;;;;;;5010856;28;20044;-77
2022/09/15 04:33:42;;;;;;;13.30;2.10;;;14.10;99.90;;;;;;5022703;28;20033;-78
2022/09/15 04:36:14;;;;;;;13.68;1.95;;;14.10;99.90;;;;;;5006514;28;20047;-78
2022/09/15 04:38:40;;;;;;;14.40;2.50;;;14.10;99.90;;;;;;5029644;28;20456;-78
2022/09/15 04:41:06;;;;;;;10.50;1.90;;;14.10;99.90;;;;;;5025324;28;20040;-77
2022/09/15 04:43:32;;;;;;;13.00;1.67;;;14.00;99.90;;;;;;5022557;28;20534;-78
2022/09/15 04:45:58;;;;;;;9.35;1.30;;;14.00;99.90;;;;;;5006607;28;20072;-78
2022/09/15 04:48:25;;;;;;;11.73;1.80;;;14.00;99.90;;;;;;5027899;28;20099;-79
2022/09/15 04:50:52;;;;;;;7.00;1.27;;;14.00;99.90;;;;;;5032526;28;20044;-78
2022/09/15 04:53:18;;;;;;;9.85;1.55;;;14.00;99.90;;;;;;5008051;28;20049;-78
2022/09/15 04:55:43;;;;;;;17.95;1.98;;;14.10;99.90;;;;;;5019559;28;20064;-78
2022/09/15 04:58:09;;;;;;;12.95;1.67;;;14.00;99.90;;;;;;5007499;28;20060;-79
2022/09/15 05:00:42;;;;;;;11.90;1.73;;;14.00;99.90;;;;;;5001607;28;20036;-78
2022/09/15 05:03:12;;;;;;;11.30;1.75;;;14.00;99.90;;;;;;5004858;28;20188;-79
2022/09/15 05:05:40;;;;;;;7.97;1.42;;;14.00;99.90;;;;;;5023207;28;20091;-83
2022/09/15 05:08:07;;;;;;;7.28;1.30;;;14.00;99.90;;;;;;5026255;28;20156;-77
2022/09/15 05:10:33;;;;;;;9.13;1.45;;;14.00;99.90;;;;;;5007703;28;20044;-79
2022/09/15 05:12:58;;;;;;;11.55;1.73;;;13.90;99.90;;;;;;5004714;28;20037;-79
2022/09/15 05:15:24;;;;;;;8.70;1.50;;;13.90;99.90;;;;;;5009199;28;20067;-79
2022/09/15 05:17:50;;;;;;;17.88;1.80;;;13.80;99.90;;;;;;5008996;28;20365;-78
2022/09/15 05:20:16;;;;;;;19.55;2.08;;;13.80;99.90;;;;;;5006697;28;20111;-77
2022/09/15 05:22:42;;;;;;;10.52;1.83;;;13.80;99.90;;;;;;5025914;28;20689;-78
2022/09/15 05:25:09;;;;;;;13.90;1.80;;;13.80;99.90;;;;;;5022385;28;20029;-77
2022/09/15 05:27:35;;;;;;;9.88;1.52;;;13.70;99.90;;;;;;5026407;28;20140;-77
2022/09/15 05:30:00;;;;;;;12.35;1.73;;;13.60;99.90;;;;;;5007107;28;20456;-78
2022/09/15 05:32:26;;;;;;;9.20;1.50;;;13.60;99.90;;;;;;5022099;28;20041;-77
2022/09/15 05:34:52;;;;;;;10.07;1.67;;;13.70;99.90;;;;;;5003363;28;20068;-78
2022/09/15 05:37:18;;;;;;;9.68;1.73;;;13.60;99.90;;;;;;5006760;28;20138;-78
2022/09/15 05:39:43;;;;;;;7.95;1.60;;;13.70;99.90;;;;;;5029330;28;20033;-78
2022/09/15 05:42:09;;;;;;;9.68;1.77;;;13.70;99.90;;;;;;5015903;28;20039;-78
2022/09/15 05:44:35;;;;;;;15.48;1.70;;;13.70;99.90;;;;;;5029367;28;20569;-78
2022/09/15 05:47:00;;;;;;;8.32;1.30;;;13.70;99.90;;;;;;5010282;28;20077;-78
2022/09/15 05:49:28;;;;;;;9.35;1.85;;;13.80;99.90;;;;;;5024258;28;20194;-78
2022/09/15 05:51:55;;;;;;;14.27;1.50;;;13.80;99.90;;;;;;5026648;28;20064;-77
2022/09/15 05:54:21;;;;;;;8.48;1.45;;;13.80;99.90;;;;;;5027421;28;20037;-78
2022/09/15 05:57:06;;;;;;;10.45;1.80;;;13.80;99.90;;;;;;5008448;28;20045;-83
2022/09/15 05:59:34;;;;;;;12.80;1.60;;;13.80;99.90;;;;;;5025930;28;20037;-83
2022/09/15 06:02:03;;;;;;;9.77;1.83;;;13.90;99.90;;;;;;5005123;28;20057;-86
2022/09/15 06:04:29;;;;;;;9.55;1.42;;;14.00;99.90;;;;;;4971285;28;20045;-80
2022/09/15 06:06:55;;;;;;;5.97;1.42;;;14.00;99.90;;;;;;4985778;28;20054;-81
2022/09/15 06:09:21;;;;;;;7.20;1.40;;;14.10;99.90;;;;;;4987269;28;20048;-79
2022/09/15 06:11:46;;;;;;;10.98;1.73;;;14.30;99.90;;;;;;5005088;28;20185;-80
2022/09/15 06:14:30;;;;;;;15.38;1.60;;;14.50;99.90;;;;;;4985087;28;20413;-81
2022/09/15 06:16:56;;;;;;;10.27;1.90;;;14.40;99.90;;;;;;4987302;28;20065;-80
2022/09/15 06:19:22;;;;;;;9.43;1.70;;;14.60;99.90;;;;;;4988747;28;20088;-78
2022/09/15 06:21:48;;;;;;;13.30;1.58;;;14.70;99.90;;;;;;4979730;28;22421;-80
2022/09/15 06:24:13;;;;;;;8.60;1.48;;;14.80;99.90;;;;;;4980522;28;20045;-79
2022/09/15 06:26:39;;;;;;;8.48;1.50;;;15.00;99.90;;;;;;4986088;28;20133;-80
2022/09/15 06:29:04;;;;;;;10.25;1.42;;;15.10;99.90;;;;;;4993012;28;20120;-76
2022/09/15 06:31:32;;;;;;;8.30;1.52;;;15.20;99.90;;;;;;4984875;28;20053;-79
2022/09/15 06:33:59;;;;;;;12.40;1.25;;;15.30;99.90;;;;;;5012874;28;20127;-78
2022/09/15 06:36:27;;;;;;;9.20;1.80;;;15.40;99.90;;;;;;5007754;28;20060;-79
2022/09/15 06:38:53;;;;;;;6.57;1.30;;;15.50;99.90;;;;;;5006102;28;20464;-79
2022/09/15 06:41:20;;;;;;;8.68;1.52;;;15.50;99.90;;;;;;5022226;28;20052;-78
2022/09/15 06:43:48;;;;;;;5.85;1.30;;;15.70;99.90;;;;;;5030458;28;20057;-78
2022/09/15 06:46:16;;;;;;;7.60;1.40;;;15.60;99.90;;;;;;5023355;28;20052;-77
2022/09/15 06:48:43;;;;;;;14.00;1.73;;;15.50;99.90;;;;;;5023219;28;20403;-79
2022/09/15 06:51:10;;;;;;;7.80;1.20;;;15.50;99.90;;;;;;5003584;28;20046;-81
2022/09/15 06:53:37;;;;;;;10.25;1.27;;;15.50;99.90;;;;;;5007989;28;20060;-80
2022/09/15 06:56:09;;;;;;;6.90;1.00;;;15.50;99.90;;;;;;5021177;28;20408;-77
2022/09/15 06:58:36;;;;;;;12.70;2.08;;;15.50;99.90;;;;;;5004938;28;20057;-80
2022/09/15 07:01:04;;;;;;;7.35;1.10;;;15.50;99.90;;;;;;4995060;28;20079;-78
2022/09/15 07:03:30;;;;;;;9.70;1.23;;;15.50;99.90;;;;;;5005234;28;20059;-76
2022/09/15 07:05:56;;;;;;;8.70;1.02;;;15.60;99.90;;;;;;5020532;28;20041;-78
2022/09/15 07:08:22;;;;;;;9.55;1.48;;;15.60;99.90;;;;;;5006983;28;20063;-79
2022/09/15 07:10:47;;;;;;;8.25;1.10;;;15.70;99.90;;;;;;5026473;28;20485;-77
2022/09/15 07:13:38;;;;;;;5.70;1.05;;;15.70;99.90;;;;;;5028977;28;20063;-76
2022/09/15 07:16:06;;;;;;;5.40;0.93;;;15.80;99.90;;;;;;5016311;28;20045;-77
2022/09/15 07:18:32;;;;;;;6.15;1.30;;;15.80;99.90;;;;;;5046120;28;20097;-77
2022/09/15 07:21:00;;;;;;;6.25;1.30;;;15.80;99.90;;;;;;5027803;28;20049;-76
2022/09/15 07:23:26;;;;;;;5.95;1.20;;;15.80;99.90;;;;;;5046221;28;20051;-78
2022/09/15 07:26:03;;;;;;;8.15;1.15;;;15.90;99.90;;;;;;5035865;28;20381;-80
2022/09/15 07:28:28;;;;;;;10.23;1.73;;;16.00;99.90;;;;;;5010413;28;20037;-80
2022/09/15 07:30:54;;;;;;;10.13;1.27;;;16.00;99.90;;;;;;5015298;28;20553;-77
2022/09/15 07:33:21;;;;;;;8.15;1.23;;;16.10;99.90;;;;;;5023696;28;20041;-81
2022/09/15 07:35:47;;;;;;;7.15;1.33;;;16.20;99.90;;;;;;5019772;28;20052;-76
2022/09/15 07:38:12;;;;;;;8.18;1.40;;;16.20;99.90;;;;;;5022956;28;20144;-81
2022/09/15 07:40:38;;;;;;;7.57;1.17;;;16.20;99.90;;;;;;5009922;28;20151;-75
2022/09/15 07:43:05;;;;;;;9.80;1.40;;;16.10;99.90;;;;;;5017682;28;20132;-76
2022/09/15 07:45:31;;;;;;;9.13;1.10;;;15.90;99.90;;;;;;5028102;28;20045;-75
2022/09/15 07:47:57;;;;;;;9.10;1.63;;;15.90;99.90;;;;;;5044267;28;20044;-76
2022/09/15 07:50:22;;;;;;;8.27;1.77;;;15.60;99.90;;;;;;5014793;28;20379;-75
2022/09/15 07:52:48;;;;;;;11.73;1.95;;;15.40;99.90;;;;;;5016363;28;20064;-74
2022/09/15 07:55:14;;;;;;;9.52;1.70;;;15.20;99.90;;;;;;5009338;28;20061;-75
2022/09/15 07:57:39;;;;;;;10.73;1.70;;;15.20;99.90;;;;;;5046794;28;20049;-74
2022/09/15 08:00:06;;;;;;;8.65;1.42;;;15.20;99.90;;;;;;5024344;28;20449;-74
2022/09/15 08:02:31;;;;;;;10.02;1.67;;;15.30;99.90;;;;;;5006454;28;20442;-74
2022/09/15 08:04:57;;;;;;;8.02;1.50;;;15.40;99.90;;;;;;5021515;28;20045;-75
2022/09/15 08:07:23;;;;;;;8.35;1.90;;;15.50;99.90;;;;;;5027334;28;20138;-74
2022/09/15 08:09:49;;;;;;;9.30;1.73;;;15.70;99.90;;;;;;5046617;28;20041;-74
2022/09/15 08:12:15;;;;;;;7.10;1.20;;;15.80;99.90;;;;;;5031470;28;20136;-74
2022/09/15 08:14:41;;;;;;;10.32;1.42;;;15.90;99.90;;;;;;5016419;28;20188;-74
2022/09/15 08:17:07;;;;;;;6.38;1.23;;;16.10;99.90;;;;;;5031377;28;20124;-74
2022/09/15 08:19:34;;;;;;;7.88;1.70;;;16.20;99.90;;;;;;5015340;28;20493;-74
2022/09/15 08:22:00;;;;;;;8.55;1.83;;;16.30;99.90;;;;;;5030235;28;20057;-74
2022/09/15 08:24:27;;;;;;;9.73;1.50;;;16.40;99.90;;;;;;5035312;28;20135;-73
2022/09/15 08:26:53;;;;;;;5.70;1.00;;;16.60;99.90;;;;;;5038101;28;20056;-76
2022/09/15 08:29:19;;;;;;;6.07;1.17;;;16.50;99.90;;;;;;5025573;28;20044;-75
2022/09/15 08:31:45;;;;;;;8.75;1.60;;;16.60;99.90;;;;;;5007171;28;20314;-76
2022/09/15 08:34:13;;;;;;;11.88;1.58;;;16.60;99.90;;;;;;5024977;28;20051;-74
2022/09/15 08:36:39;;;;;;;16.65;1.50;;;16.70;99.90;;;;;;5024848;28;20465;-74
2022/09/15 08:39:05;;;;;;;8.15;1.52;;;16.70;99.90;;;;;;5032146;28;20047;-74
2022/09/15 08:41:32;;;;;;;8.45;1.45;;;16.80;99.90;;;;;;5028606;28;20049;-74
2022/09/15 08:43:58;;;;;;;9.13;1.65;;;16.80;99.90;;;;;;5011098;28;20053;-78
2022/09/15 08:46:49;;;;;;;6.72;1.35;;;16.90;99.90;;;;;;5009339;28;20048;-77
2022/09/15 08:49:23;;;;;;;8.77;1.50;;;17.10;99.90;;;;;;5029010;28;20053;-77
2022/09/15 08:51:51;;;;;;;8.88;1.35;;;17.00;99.90;;;;;;5006157;28;20050;-74
2022/09/15 08:54:26;;;;;;;12.70;1.73;;;17.10;99.90;;;;;;5018859;28;20060;-76
2022/09/15 08:56:53;;;;;;;12.90;2.00;;;16.90;99.90;;;;;;5002017;28;20037;-78
2022/09/15 08:59:20;;;;;;;10.27;1.75;;;16.90;99.90;;;;;;5011570;28;20061;-78
2022/09/15 09:01:56;;;;;;;9.27;1.70;;;16.80;99.90;;;;;;5028806;28;20092;-79
2022/09/15 09:04:46;;;;;;;9.95;1.55;;;16.60;99.90;;;;;;5039398;28;20081;-79
2022/09/15 09:07:12;;;;;;;7.18;1.63;;;16.00;99.90;;;;;;5009433;28;20144;-76
2022/09/15 09:09:56;;;;;;;9.35;1.77;;;15.80;99.90;;;;;;5012376;28;20120;-79
2022/09/15 09:12:31;;;;;;;8.25;1.70;;;15.60;99.90;;;;;;5028903;28;20566;-79
2022/09/15 09:15:06;;;;;;;6.88;1.70;;;15.60;99.90;;;;;;5029636;28;20045;-78
2022/09/15 09:17:44;;;;;;;6.47;1.50;;;15.60;99.90;;;;;;5011138;28;20076;-76
2022/09/15 09:20:33;;;;;;;8.60;1.83;;;15.70;99.90;;;;;;5015773;28;20056;-78
2022/09/15 09:23:02;;;;;;;7.47;1.42;;;15.60;99.90;;;;;;5026487;28;20117;-78
2022/09/15 09:25:28;;;;;;;9.82;1.70;;;15.70;99.90;;;;;;5029545;28;20045;-79
2022/09/15 09:27:57;;;;;;;6.88;1.90;;;15.80;99.90;;;;;;5011827;28;20033;-79
2022/09/15 09:30:24;;;;;;;12.13;2.28;;;16.00;99.90;;;;;;5008728;28;20459;-78
2022/09/15 09:33:17;;;;;;;8.57;2.17;;;16.10;99.90;;;;;;5003058;28;20051;-80
2022/09/15 09:35:45;;;;;;;8.52;1.77;;;16.00;99.90;;;;;;5031392;28;20166;-78
2022/09/15 09:38:35;;;;;;;6.15;1.23;;;16.00;99.90;;;;;;5009982;28;20041;-80
2022/09/15 09:41:03;;;;;;;4.53;1.00;;;15.60;99.90;;;;;;5009577;28;20056;-79
2022/09/15 09:43:30;;;;;;;3.97;1.10;;;15.50;99.90;;;;;;5034671;28;20146;-82
2022/09/15 09:45:56;;;;;;;5.75;1.15;;;15.60;99.90;;;;;;5038340;28;20045;-82
2022/09/15 09:48:25;;;;;;;6.95;0.95;;;15.60;99.90;;;;;;5037813;28;20139;-81
2022/09/15 09:50:50;;;;;;;5.55;1.10;;;15.70;99.90;;;;;;5003636;28;20072;-80
2022/09/15 09:53:29;;;;;;;5.45;0.90;;;15.80;99.90;;;;;;5013291;28;20466;-79
2022/09/15 09:56:10;;;;;;;7.40;1.58;;;16.00;99.90;;;;;;5021336;28;20064;-78
2022/09/15 09:58:36;;;;;;;7.38;1.33;;;16.00;99.90;;;;;;5021576;28;20130;-76
2022/09/15 10:01:10;;;;;;;3.70;1.10;;;16.00;99.90;;;;;;5021187;28;20131;-78
2022/09/15 10:03:37;;;;;;;8.07;1.67;;;16.20;99.90;;;;;;5018799;28;20053;-75
2022/09/15 10:06:10;;;;;;;3.25;1.00;;;16.40;99.90;;;;;;5017502;28;20053;-75
2022/09/15 10:08:37;;;;;;;7.25;1.48;;;16.60;99.90;;;;;;5007666;28;20092;-78
2022/09/15 10:11:06;;;;;;;9.63;1.20;;;17.00;99.90;;;;;;5020754;28;20052;-75
2022/09/15 10:13:34;;;;;;;12.95;1.80;;;17.10;99.90;;;;;;5001009;28;20081;-76
2022/09/15 10:16:03;;;;;;;8.27;1.60;;;17.50;99.90;;;;;;5022945;28;20041;-75
2022/09/15 10:18:35;;;;;;;8.00;1.30;;;17.50;99.90;;;;;;5021771;28;21664;-75
2022/09/15 10:21:05;;;;;;;7.47;1.38;;;17.60;99.90;;;;;;5019003;28;20044;-75
2022/09/15 10:23:32;;;;;;;9.25;1.58;;;17.70;99.90;;;;;;5018980;28;20053;-74
2022/09/15 10:26:18;;;;;;;5.38;1.20;;;17.70;99.90;;;;;;4996701;28;20130;-77
2022/09/15 10:29:09;;;;;;;9.65;1.35;;;17.40;99.90;;;;;;5020951;28;20037;-76
2022/09/15 10:31:35;;;;;;;5.32;1.30;;;17.00;99.90;;;;;;5014882;28;20088;-77
2022/09/15 10:34:25;;;;;;;5.90;1.20;;;16.70;99.90;;;;;;5003050;28;20393;-75
2022/09/15 10:37:05;;;;;;;4.65;1.45;;;16.70;99.90;;;;;;5022910;28;20048;-78
2022/09/15 10:39:53;;;;;;;5.55;1.48;;;16.70;99.90;;;;;;5000291;28;20135;-74
2022/09/15 10:42:30;;;;;;;5.32;1.25;;;16.90;99.90;;;;;;5005919;28;20049;-77
2022/09/15 10:45:10;;;;;;;7.43;1.70;;;17.00;99.90;;;;;;5022215;28;20055;-75
2022/09/15 10:47:47;;;;;;;6.25;1.00;;;16.80;99.90;;;;;;5017763;28;20041;-76
2022/09/15 10:50:47;;;;;;;5.43;0.93;;;16.80;99.90;;;;;;5002502;28;20057;-75
2022/09/15 10:53:27;;;;;;;2.35;0.80;;;16.60;99.90;;;;;;5000451;28;20056;-77
2022/09/15 10:56:20;;;;;;;1.48;0.63;;;16.90;99.90;;;;;;5020557;28;20510;-77
2022/09/15 10:59:08;;;;;;;2.25;0.50;;;17.10;99.90;;;;;;5024899;28;20053;-75
2022/09/15 11:02:15;;;;;;;1.42;0.82;;;17.10;99.90;;;;;;5004876;28;20075;-78
2022/09/15 11:04:56;;;;;;;2.75;0.80;;;17.20;99.90;;;;;;4911164;29;20150;-78
2022/09/15 11:07:35;;;;;;;1.95;0.70;;;17.20;99.90;;;;;;4910364;29;20415;-79
2022/09/15 11:10:00;;;;;;;4.32;1.25;;;17.30;99.90;;;;;;4936378;29;20143;-77
2022/09/15 11:12:42;;;;;;;3.83;1.30;;;17.30;99.90;;;;;;4911168;29;20039;-77
2022/09/15 11:15:42;;;;;;;5.43;1.20;;;17.50;99.90;;;;;;4928235;29;20047;-77
2022/09/15 11:18:40;;;;;;;5.00;1.10;;;17.60;99.90;;;;;;4924935;29;20059;-78
2022/09/15 11:21:21;;;;;;;9.75;1.60;;;17.60;99.90;;;;;;4909751;29;21653;-76
2022/09/15 11:24:05;;;;;;;11.07;1.50;;;17.90;99.90;;;;;;4905622;29;20157;-77
2022/09/15 11:26:50;;;;;;;7.73;1.27;;;17.90;99.90;;;;;;4952585;28;20050;-76
2022/09/15 11:29:24;;;;;;;7.82;1.38;;;17.90;99.90;;;;;;4926000;28;20067;-78
2022/09/15 11:31:57;;;;;;;10.93;1.67;;;18.20;99.90;;;;;;4955288;28;20047;-76
2022/09/15 11:34:29;;;;;;;6.82;1.10;;;18.10;99.90;;;;;;4952734;28;20499;-79
2022/09/15 11:37:20;;;;;;;4.85;1.00;;;18.30;99.90;;;;;;4923736;28;20613;-78
2022/09/15 11:39:52;;;;;;;4.25;1.10;;;18.10;99.90;;;;;;4867942;29;20070;-76
2022/09/15 11:42:26;;;;;;;6.93;1.50;;;18.20;99.90;;;;;;4933120;28;20055;-76
2022/09/15 11:44:53;;;;;;;4.90;1.00;;;18.60;99.90;;;;;;4944586;28;20133;-75
2022/09/15 11:47:22;;;;;;;4.30;1.27;;;18.60;99.90;;;;;;4926982;28;20046;-75
2022/09/15 11:49:50;;;;;;;4.88;1.60;;;18.70;99.90;;;;;;4959549;28;20039;-76
2022/09/15 11:52:54;;;;;;;5.68;1.40;;;18.70;99.90;;;;;;4960289;28;20047;-75
2022/09/15 11:56:10;;;;;;;10.00;1.55;;;18.80;99.90;;;;;;4948639;28;20490;-73
2022/09/15 11:58:49;;;;;;;7.68;1.20;;;18.90;99.90;;;;;;4872330;29;20105;-77
2022/09/15 12:01:17;;;;;;;7.50;1.20;;;18.90;99.90;;;;;;4868004;29;20075;-77
2022/09/15 12:04:01;;;;;;;9.18;1.13;;;18.80;99.90;;;;;;4874949;29;20323;-78
2022/09/15 12:06:44;;;;;;;6.55;1.45;;;18.90;99.90;;;;;;4889289;29;20177;-77
2022/09/15 12:09:16;;;;;;;4.90;1.00;;;18.90;99.90;;;;;;4876751;29;20049;-77
2022/09/15 12:11:48;;;;;;;4.38;0.80;;;19.00;99.90;;;;;;4880990;29;20048;-77
2022/09/15 12:14:19;;;;;;;2.70;0.93;;;19.10;99.90;;;;;;4878944;29;20060;-77
2022/09/15 12:16:45;;;;;;;4.85;1.15;;;19.00;99.90;;;;;;4879892;29;20076;-75
2022/09/15 12:19:32;;;;;;;5.47;1.00;;;18.90;99.90;;;;;;4935011;28;20074;-77
2022/09/15 12:22:11;;;;;;;2.70;1.00;;;19.30;99.90;;;;;;4941094;28;20055;-78
2022/09/15 12:25:01;;;;;;;5.90;1.83;;;19.60;99.90;;;;;;4934087;28;20039;-74
2022/09/15 12:27:28;;;;;;;4.85;1.15;;;20.10;99.90;;;;;;4942208;28;20047;-76
2022/09/15 12:29:57;;;;;;;4.60;1.23;;;20.00;99.90;;;;;;5010414;28;20064;-81
2022/09/15 12:32:28;;;;;;;11.05;1.40;;;19.60;99.90;;;;;;5027413;28;20101;-80
2022/09/15 12:35:30;;;;;;;2.20;0.82;;;19.40;99.90;;;;;;5013866;28;20037;-81
2022/09/15 12:37:57;;;;;;;3.95;1.30;;;18.90;99.90;;;;;;5022472;28;20049;-80
2022/09/15 12:40:29;;;;;;;6.40;1.10;;;18.60;99.90;;;;;;5030747;28;20059;-78
2022/09/15 12:42:56;;;;;;;6.70;1.27;;;18.70;99.90;;;;;;5014426;28;20044;-80
2022/09/15 12:45:24;;;;;;;4.90;1.15;;;18.60;99.90;;;;;;5023673;28;20049;-78
2022/09/15 12:47:59;;;;;;;5.47;1.27;;;18.80;99.90;;;;;;5011347;28;20091;-77
2022/09/15 12:50:31;;;;;;;8.65;1.65;;;19.60;99.90;;;;;;5002789;28;20493;-76
2022/09/15 12:53:16;;;;;;;5.47;1.10;;;20.40;99.90;;;;;;5028711;28;20507;-80
2022/09/15 12:55:58;;;;;;;5.53;1.20;;;20.90;99.90;;;;;;5017584;28;20055;-77
2022/09/15 12:58:48;;;;;;;6.35;1.27;;;21.10;99.90;;;;;;5034803;28;20488;-76
2022/09/15 13:01:25;;;;;;;5.85;1.17;;;20.80;99.90;;;;;;5027401;28;20044;-78
2022/09/15 13:03:54;;;;;;;9.82;1.45;;;20.10;99.90;;;;;;5041517;28;20058;-77
2022/09/15 13:06:34;;;;;;;3.22;1.10;;;19.70;99.90;;;;;;5002594;28;20460;-76